createdAt,value
2019-05-25T00:02:17.328Z,99.90
2019-05-25T00:04:45.875Z,99.90
2019-05-25T00:07:14.432Z,99.90
2019-05-25T00:09:43.059Z,99.90
2019-05-25T00:12:11.604Z,99.90
2019-05-25T00:14:40.142Z,99.90
2019-05-25T00:17:08.697Z,99.90
2019-05-25T00:19:37.236Z,99.90
2019-05-25T00:22:05.871Z,99.90
2019-05-25T00:24:34.411Z,99.90
2019-05-25T00:27:02.969Z,99.90
2019-05-25T00:29:31.592Z,99.90
2019-05-25T00:32:00.144Z,99.90
2019-05-25T00:34:28.675Z,99.90
2019-05-25T00:36:57.241Z,99.90
2019-05-25T00:39:25.847Z,99.90
2019-05-25T00:41:54.447Z,99.90
2019-05-25T00:44:23.011Z,99.90
2019-05-25T00:46:51.548Z,99.90
2019-05-25T00:49:20.122Z,99.90
2019-05-25T00:51:48.712Z,99.90
2019-05-25T00:54:27.434Z,99.90
2019-05-25T00:56:47.592Z,99.90
2019-05-25T00:59:16.218Z,99.90
2019-05-25T01:01:44.752Z,99.90
2019-05-25T01:04:13.313Z,99.90
2019-05-25T01:06:41.848Z,99.90
2019-05-25T01:09:10.444Z,99.90
2019-05-25T01:11:39.054Z,99.90
2019-05-25T01:14:07.659Z,99.90
2019-05-25T01:16:36.238Z,99.90
2019-05-25T01:19:04.816Z,99.90
2019-05-25T01:21:33.453Z,99.90
2019-05-25T01:24:02.139Z,99.90
2019-05-25T01:26:30.691Z,99.90
2019-05-25T01:28:59.231Z,99.90
2019-05-25T01:31:27.927Z,99.90
2019-05-25T01:33:56.479Z,99.90
2019-05-25T01:36:25.021Z,99.90
2019-05-25T01:38:53.585Z,99.90
2019-05-25T01:41:22.115Z,99.90
2019-05-25T01:43:50.679Z,99.90
2019-05-25T01:46:19.222Z,99.90
2019-05-25T01:48:47.781Z,99.90
2019-05-25T01:51:16.318Z,99.90
2019-05-25T01:53:44.944Z,99.90
2019-05-25T01:56:13.557Z,99.90
2019-05-25T01:58:42.103Z,99.90
2019-05-25T02:01:10.705Z,99.90
2019-05-25T02:03:39.262Z,99.90
2019-05-25T02:06:07.797Z,99.90
2019-05-25T02:08:36.428Z,99.90
2019-05-25T02:11:05.063Z,99.90
2019-05-25T02:13:33.594Z,99.90
2019-05-25T02:16:02.175Z,99.90
2019-05-25T02:18:30.686Z,99.90
2019-05-25T02:20:59.323Z,99.90
2019-05-25T02:23:27.863Z,99.90
2019-05-25T02:25:56.485Z,99.90
2019-05-25T02:28:25.098Z,99.90
2019-05-25T02:30:53.719Z,99.90
2019-05-25T02:33:22.253Z,99.90
2019-05-25T02:35:50.883Z,99.90
2019-05-25T02:38:19.422Z,99.90
2019-05-25T02:40:47.968Z,99.90
2019-05-25T02:43:16.571Z,99.90
2019-05-25T02:45:45.199Z,99.90
2019-05-25T02:48:13.800Z,99.90
2019-05-25T02:50:42.422Z,99.90
2019-05-25T02:53:11.055Z,99.90
2019-05-25T02:55:39.575Z,99.90
2019-05-25T02:58:08.191Z,99.90
2019-05-25T03:00:36.804Z,99.90
2019-05-25T03:03:05.606Z,99.90
2019-05-25T03:05:34.321Z,99.90
2019-05-25T03:08:03.017Z,99.90
2019-05-25T03:10:32.388Z,99.90
2019-05-25T03:13:02.670Z,99.90
2019-05-25T03:15:31.346Z,99.90
2019-05-25T03:18:00.054Z,99.90
2019-05-25T03:20:28.582Z,99.90
2019-05-25T03:22:57.162Z,99.90
2019-05-25T03:25:25.847Z,99.90
2019-05-25T03:27:54.401Z,99.90
2019-05-25T03:30:34.374Z,99.90
2019-05-25T03:33:03.053Z,99.90
2019-05-25T03:35:31.931Z,99.90
2019-05-25T03:38:00.636Z,99.90
2019-05-25T03:40:29.179Z,99.90
2019-05-25T03:42:57.821Z,99.90
2019-05-25T03:45:26.352Z,99.90
2019-05-25T03:47:54.918Z,99.90
2019-05-25T03:50:23.610Z,99.90
2019-05-25T03:52:52.223Z,99.90
2019-05-25T03:55:20.928Z,99.90
2019-05-25T03:57:49.470Z,99.90
2019-05-25T04:00:33.006Z,99.90
2019-05-25T04:03:01.606Z,99.90
2019-05-25T04:05:30.308Z,99.90
2019-05-25T04:07:58.927Z,99.90
2019-05-25T04:10:27.553Z,99.90
2019-05-25T04:12:56.159Z,99.90
2019-05-25T04:15:24.968Z,99.90
2019-05-25T04:17:53.569Z,99.90
2019-05-25T04:20:22.204Z,99.90
2019-05-25T04:22:50.808Z,99.90
2019-05-25T04:25:19.513Z,99.90
2019-05-25T04:27:48.112Z,99.90
2019-05-25T04:30:16.828Z,99.90
2019-05-25T04:32:45.393Z,99.90
2019-05-25T04:35:14.563Z,99.90
2019-05-25T04:37:43.128Z,99.90
2019-05-25T04:40:12.107Z,99.90
2019-05-25T04:42:40.734Z,99.90
2019-05-25T04:45:09.630Z,99.90
2019-05-25T04:47:38.158Z,99.90
2019-05-25T04:50:07.674Z,99.90
2019-05-25T04:52:36.276Z,99.90
2019-05-25T04:55:06.070Z,99.90
2019-05-25T04:57:34.611Z,99.90
2019-05-25T05:00:04.337Z,99.90
2019-05-25T05:02:32.937Z,99.90
2019-05-25T05:05:01.537Z,99.90
2019-05-25T05:07:30.028Z,99.90
2019-05-25T05:10:02.473Z,99.90
2019-05-25T05:12:28.911Z,99.90
2019-05-25T05:14:57.450Z,99.90
2019-05-25T05:17:26.015Z,99.90
2019-05-25T05:19:54.551Z,99.90
2019-05-25T05:22:23.124Z,99.90
2019-05-25T05:24:51.671Z,99.90
2019-05-25T05:27:20.225Z,99.90
2019-05-25T05:29:48.694Z,99.90
2019-05-25T05:32:27.069Z,99.90
2019-05-25T05:34:47.515Z,99.90
2019-05-25T05:37:16.152Z,99.90
2019-05-25T05:39:45.352Z,99.90
2019-05-25T05:42:14.591Z,99.90
2019-05-25T05:44:44.910Z,99.90
2019-05-25T05:47:15.190Z,99.90
2019-05-25T05:49:44.501Z,99.90
2019-05-25T05:52:16.229Z,99.90
2019-05-25T05:54:46.717Z,99.90
2019-05-25T05:57:15.254Z,99.90
2019-05-25T05:59:43.805Z,99.90
2019-05-25T06:02:12.351Z,99.90
2019-05-25T06:04:40.959Z,99.90
2019-05-25T06:07:09.587Z,99.90
2019-05-25T06:09:38.257Z,99.90
2019-05-25T06:12:06.962Z,99.90
2019-05-25T06:14:35.543Z,99.90
2019-05-25T06:17:05.484Z,99.90
2019-05-25T06:19:33.965Z,99.90
2019-05-25T06:22:02.543Z,99.90
2019-05-25T06:24:31.259Z,99.90
2019-05-25T06:26:59.791Z,99.90
2019-05-25T06:29:28.351Z,99.90
2019-05-25T06:31:57.025Z,99.90
2019-05-25T06:34:25.657Z,99.90
2019-05-25T06:36:54.179Z,99.90
2019-05-25T06:39:22.804Z,99.90
2019-05-25T06:41:51.293Z,99.90
2019-05-25T06:44:19.855Z,99.90
2019-05-25T06:46:48.476Z,99.90
2019-05-25T06:49:17.011Z,99.90
2019-05-25T06:51:45.558Z,99.90
2019-05-25T06:54:14.091Z,99.90
2019-05-25T06:56:42.670Z,99.90
2019-05-25T06:59:11.198Z,99.90
2019-05-25T07:01:39.964Z,99.90
2019-05-25T07:04:08.499Z,99.90
2019-05-25T07:06:37.076Z,99.90
2019-05-25T07:09:07.242Z,99.90
2019-05-25T07:11:35.795Z,99.90
2019-05-25T07:14:05.166Z,99.90
2019-05-25T07:16:33.721Z,99.90
2019-05-25T07:19:02.247Z,99.90
2019-05-25T07:21:30.780Z,99.90
2019-05-25T07:23:59.418Z,99.90
2019-05-25T07:26:27.961Z,99.90
2019-05-25T07:28:56.754Z,99.90
2019-05-25T07:31:25.589Z,99.90
2019-05-25T07:33:54.135Z,99.90
2019-05-25T07:36:22.731Z,99.90
2019-05-25T07:38:51.287Z,99.90
2019-05-25T07:41:19.826Z,99.90
2019-05-25T07:43:48.462Z,99.90
2019-05-25T07:46:17.437Z,99.90
2019-05-25T07:48:46.183Z,99.90
2019-05-25T07:51:14.808Z,99.90
2019-05-25T07:53:43.341Z,99.90
2019-05-25T07:56:12.336Z,99.90
2019-05-25T07:58:40.948Z,99.90
2019-05-25T08:01:09.570Z,99.90
2019-05-25T08:03:39.896Z,99.90
2019-05-25T08:06:08.313Z,99.90
2019-05-25T08:08:36.848Z,99.90
2019-05-25T08:11:05.497Z,99.90
2019-05-25T08:13:35.254Z,99.90
2019-05-25T08:16:03.879Z,99.90
2019-05-25T08:18:32.413Z,99.90
2019-05-25T08:21:01.143Z,99.90
2019-05-25T08:23:29.919Z,99.90
2019-05-25T08:25:58.481Z,99.90
2019-05-25T08:28:32.629Z,99.90
2019-05-25T08:31:01.070Z,99.90
2019-05-25T08:33:27.417Z,99.90
2019-05-25T08:35:55.947Z,99.90
2019-05-25T08:38:24.511Z,99.90
2019-05-25T08:40:53.036Z,99.90
2019-05-25T08:43:21.591Z,99.80
2019-05-25T08:45:50.131Z,99.90
2019-05-25T08:48:18.760Z,97.30
2019-05-25T08:50:47.372Z,99.90
2019-05-25T08:53:15.929Z,99.90
2019-05-25T08:55:44.482Z,99.90
2019-05-25T08:58:13.039Z,99.10
2019-05-25T09:00:41.767Z,99.00
2019-05-25T09:03:10.480Z,96.90
2019-05-25T09:05:39.070Z,96.80
2019-05-25T09:08:07.709Z,95.70
2019-05-25T09:10:36.313Z,95.20
2019-05-25T09:13:04.946Z,96.10
2019-05-25T09:15:33.559Z,93.80
2019-05-25T09:18:02.168Z,93.30
2019-05-25T09:20:30.747Z,90.00
2019-05-25T09:22:59.469Z,93.70
2019-05-25T09:25:28.094Z,92.40
2019-05-25T09:27:56.711Z,93.10
2019-05-25T09:30:25.410Z,93.70
2019-05-25T09:32:53.955Z,91.90
2019-05-25T09:35:22.656Z,90.90
2019-05-25T09:37:51.217Z,92.60
2019-05-25T09:40:20.111Z,91.50
2019-05-25T09:42:49.032Z,89.00
2019-05-25T09:45:17.908Z,83.70
2019-05-25T09:47:46.475Z,84.70
2019-05-25T09:50:16.007Z,84.20
2019-05-25T09:52:44.536Z,91.20
2019-05-25T09:55:13.927Z,83.60
2019-05-25T09:57:42.557Z,84.50
2019-05-25T10:00:13.154Z,82.80
2019-05-25T10:02:42.471Z,88.10
2019-05-25T10:05:12.124Z,85.70
2019-05-25T10:07:40.769Z,83.30
2019-05-25T10:10:11.220Z,86.50
2019-05-25T10:12:42.783Z,82.00
2019-05-25T10:15:12.182Z,86.20
2019-05-25T10:17:40.873Z,84.20
2019-05-25T10:20:10.384Z,81.20
2019-05-25T10:22:39.016Z,82.10
2019-05-25T10:25:10.067Z,82.90
2019-05-25T10:27:38.695Z,83.90
2019-05-25T10:30:08.564Z,81.10
2019-05-25T10:32:37.122Z,80.30
2019-05-25T10:35:07.303Z,81.50
2019-05-25T10:37:36.289Z,78.90
2019-05-25T10:40:08.773Z,82.30
2019-05-25T10:42:37.352Z,82.10
2019-05-25T10:45:07.911Z,79.70
2019-05-25T10:47:36.508Z,79.90
2019-05-25T10:50:07.705Z,81.10
2019-05-25T10:52:36.243Z,80.30
2019-05-25T10:55:07.239Z,80.40
2019-05-25T10:57:35.798Z,80.20
2019-05-25T11:00:07.796Z,78.00
2019-05-25T11:02:36.314Z,75.90
2019-05-25T11:05:08.749Z,76.10
2019-05-25T11:07:37.376Z,76.50
2019-05-25T11:10:09.563Z,79.90
2019-05-25T11:12:38.183Z,74.40
2019-05-25T11:15:08.069Z,78.70
2019-05-25T11:17:36.776Z,72.10
2019-05-25T11:20:10.365Z,74.40
2019-05-25T11:22:39.047Z,73.20
2019-05-25T11:25:08.740Z,68.90
2019-05-25T11:27:37.457Z,58.00
2019-05-25T11:30:09.998Z,68.40
2019-05-25T11:32:39.121Z,68.50
2019-05-25T11:35:08.214Z,66.20
2019-05-25T11:37:36.898Z,64.00
2019-05-25T11:40:07.589Z,67.00
2019-05-25T11:42:36.216Z,67.30
2019-05-25T11:45:07.126Z,69.50
2019-05-25T11:47:35.746Z,64.40
2019-05-25T11:50:06.809Z,63.90
2019-05-25T11:52:35.494Z,68.60
2019-05-25T11:55:07.106Z,72.00
2019-05-25T11:57:35.915Z,67.50
2019-05-25T12:00:23.826Z,70.30
2019-05-25T12:02:40.142Z,69.80
2019-05-25T12:05:10.226Z,72.20
2019-05-25T12:07:38.858Z,63.40
2019-05-25T12:10:07.965Z,61.80
2019-05-25T12:12:36.529Z,63.30
2019-05-25T12:15:09.682Z,61.90
2019-05-25T12:17:38.244Z,62.40
2019-05-25T12:20:07.614Z,66.70
2019-05-25T12:22:36.242Z,71.70
2019-05-25T12:25:09.508Z,60.50
2019-05-25T12:27:38.071Z,62.30
2019-05-25T12:30:07.344Z,62.50
2019-05-25T12:32:36.045Z,62.10
2019-05-25T12:35:06.617Z,61.70
2019-05-25T12:37:35.246Z,64.40
2019-05-25T12:40:05.325Z,68.00
2019-05-25T12:42:33.935Z,68.90
2019-05-25T12:45:02.611Z,70.30
2019-05-25T12:47:31.157Z,69.40
2019-05-25T12:49:59.899Z,68.70
2019-05-25T12:52:28.489Z,68.00
2019-05-25T12:54:57.014Z,65.60
2019-05-25T12:57:25.555Z,71.40
2019-05-25T12:59:54.166Z,69.80
2019-05-25T13:02:22.857Z,72.70
2019-05-25T13:04:51.394Z,69.50
2019-05-25T13:07:20.020Z,67.40
2019-05-25T13:09:48.602Z,65.70
2019-05-25T13:12:17.127Z,68.80
2019-05-25T13:14:45.676Z,70.20
2019-05-25T13:17:14.207Z,71.20
2019-05-25T13:19:42.840Z,70.70
2019-05-25T13:22:11.380Z,71.00
2019-05-25T13:24:39.998Z,71.50
2019-05-25T13:27:08.819Z,71.10
2019-05-25T13:29:37.379Z,73.30
2019-05-25T13:32:06.057Z,75.50
2019-05-25T13:34:34.612Z,76.90
2019-05-25T13:37:03.308Z,79.00
2019-05-25T13:39:31.931Z,79.30
2019-05-25T13:42:00.459Z,80.00
2019-05-25T13:44:29.091Z,80.80
2019-05-25T13:46:57.640Z,82.50
2019-05-25T13:49:26.765Z,84.30
2019-05-25T13:51:55.376Z,85.30
2019-05-25T13:54:23.931Z,87.90
2019-05-25T13:56:52.539Z,88.30
2019-05-25T13:59:21.148Z,89.10
2019-05-25T14:01:49.713Z,90.00
2019-05-25T14:04:18.252Z,90.50
2019-05-25T14:06:46.811Z,90.50
2019-05-25T14:09:16.054Z,90.80
2019-05-25T14:11:44.716Z,92.10
2019-05-25T14:14:13.250Z,91.90
2019-05-25T14:16:41.850Z,93.20
2019-05-25T14:19:10.407Z,93.10
2019-05-25T14:21:38.948Z,93.80
2019-05-25T14:24:07.583Z,94.50
2019-05-25T14:26:36.116Z,95.10
2019-05-25T14:29:04.921Z,95.50
2019-05-25T14:31:44.857Z,94.60
2019-05-25T14:34:03.737Z,95.70
2019-05-25T14:36:32.276Z,94.50
2019-05-25T14:39:00.813Z,95.20
2019-05-25T14:41:29.455Z,94.70
2019-05-25T14:43:57.983Z,94.20
2019-05-25T14:46:28.170Z,96.10
2019-05-25T14:48:56.807Z,95.50
2019-05-25T14:51:25.362Z,95.10
2019-05-25T14:53:53.903Z,94.90
2019-05-25T14:56:22.455Z,95.10
2019-05-25T14:58:51.085Z,94.50
2019-05-25T15:01:19.627Z,94.00
2019-05-25T15:03:48.167Z,94.10
2019-05-25T15:06:20.689Z,93.70
2019-05-25T15:08:47.049Z,93.50
2019-05-25T15:11:15.609Z,94.00
2019-05-25T15:13:44.155Z,94.40
2019-05-25T15:16:12.696Z,95.10
2019-05-25T15:18:41.253Z,95.10
2019-05-25T15:21:09.783Z,95.40
2019-05-25T15:23:38.353Z,96.30
2019-05-25T15:26:06.962Z,96.60
2019-05-25T15:28:35.507Z,96.90
2019-05-25T15:31:04.121Z,98.20
2019-05-25T15:33:32.752Z,97.10
2019-05-25T15:36:01.342Z,97.50
2019-05-25T15:38:29.967Z,98.10
2019-05-25T15:40:58.548Z,98.00
2019-05-25T15:43:27.107Z,98.90
2019-05-25T15:45:55.665Z,99.70
2019-05-25T15:48:26.377Z,99.50
2019-05-25T15:50:54.569Z,99.80
2019-05-25T15:53:23.191Z,99.40
2019-05-25T15:55:51.734Z,99.90
2019-05-25T15:58:20.258Z,99.90
2019-05-25T16:00:51.086Z,99.90
2019-05-25T16:03:20.839Z,99.90
2019-05-25T16:05:49.925Z,99.90
2019-05-25T16:08:20.014Z,99.90
2019-05-25T16:10:48.928Z,99.90
2019-05-25T16:13:17.624Z,99.90
2019-05-25T16:15:46.269Z,99.90
2019-05-25T16:18:16.055Z,99.90
2019-05-25T16:20:44.617Z,99.90
2019-05-25T16:23:13.292Z,99.90
2019-05-25T16:25:42.000Z,99.90
2019-05-25T16:28:10.589Z,99.90
2019-05-25T16:30:39.321Z,99.90
2019-05-25T16:33:12.591Z,99.90
2019-05-25T16:35:38.243Z,99.90
2019-05-25T16:38:06.962Z,99.90
2019-05-25T16:40:36.175Z,99.90
2019-05-25T16:43:04.848Z,99.90
2019-05-25T16:45:33.555Z,99.90
2019-05-25T16:48:02.172Z,99.90
2019-05-25T16:50:30.687Z,99.90
2019-05-25T16:52:59.245Z,99.90
2019-05-25T16:55:27.945Z,99.90
2019-05-25T16:57:56.635Z,99.90
2019-05-25T17:00:29.417Z,99.90
2019-05-25T17:02:59.012Z,99.90
2019-05-25T17:05:28.275Z,99.90
2019-05-25T17:07:57.241Z,99.90
2019-05-25T17:10:25.992Z,99.90
2019-05-25T17:12:54.524Z,99.90
2019-05-25T17:15:23.232Z,99.90
2019-05-25T17:17:51.856Z,99.90
2019-05-25T17:20:20.742Z,99.90
2019-05-25T17:22:49.280Z,99.90
2019-05-25T17:25:18.491Z,99.90
2019-05-25T17:27:47.020Z,99.90
2019-05-25T17:30:18.989Z,99.90
2019-05-25T17:32:47.521Z,99.90
2019-05-25T17:35:16.297Z,99.90
2019-05-25T17:37:44.985Z,99.90
2019-05-25T17:40:13.862Z,99.90
2019-05-25T17:42:42.484Z,99.90
2019-05-25T17:45:11.160Z,99.90
2019-05-25T17:47:39.716Z,99.90
2019-05-25T17:50:08.535Z,99.90
2019-05-25T17:52:37.103Z,99.90
2019-05-25T17:55:07.174Z,99.90
2019-05-25T17:57:35.769Z,99.90
2019-05-25T18:00:07.240Z,99.90
2019-05-25T18:02:35.842Z,99.90
2019-05-25T18:05:06.743Z,99.90
2019-05-25T18:07:35.413Z,99.90
2019-05-25T18:10:07.029Z,99.90
2019-05-25T18:12:35.635Z,99.90
2019-05-25T18:15:09.412Z,99.90
2019-05-25T18:17:38.027Z,99.90
2019-05-25T18:20:10.608Z,99.90
2019-05-25T18:22:39.127Z,99.90
2019-05-25T18:25:08.440Z,99.90
2019-05-25T18:27:37.470Z,99.90
2019-05-25T18:30:08.779Z,99.90
2019-05-25T18:32:37.311Z,99.90
2019-05-25T18:35:07.606Z,99.90
2019-05-25T18:37:36.217Z,99.90
2019-05-25T18:40:08.159Z,99.90
2019-05-25T18:42:36.940Z,99.90
2019-05-25T18:45:09.560Z,99.90
2019-05-25T18:47:38.236Z,99.90
2019-05-25T18:50:14.248Z,99.90
2019-05-25T18:52:42.871Z,99.90
2019-05-25T18:55:11.848Z,99.90
2019-05-25T18:57:40.410Z,99.90
2019-05-25T19:00:09.692Z,99.90
2019-05-25T19:02:38.396Z,99.90
2019-05-25T19:05:08.085Z,99.90
2019-05-25T19:07:36.707Z,99.90
2019-05-25T19:10:11.982Z,99.90
2019-05-25T19:12:40.609Z,99.90
2019-05-25T19:15:09.989Z,99.90
2019-05-25T19:17:39.443Z,99.90
2019-05-25T19:20:09.699Z,99.90
2019-05-25T19:22:38.377Z,99.90
2019-05-25T19:25:10.404Z,99.90
2019-05-25T19:27:39.027Z,99.90
2019-05-25T19:30:09.152Z,99.90
2019-05-25T19:32:37.800Z,99.90
2019-05-25T19:35:06.969Z,99.90
2019-05-25T19:37:35.535Z,99.90
2019-05-25T19:40:09.575Z,99.90
2019-05-25T19:42:38.446Z,99.90
2019-05-25T19:45:08.944Z,99.90
2019-05-25T19:47:37.561Z,99.90
2019-05-25T19:50:07.972Z,99.90
2019-05-25T19:52:36.568Z,99.90
2019-05-25T19:55:09.346Z,99.90
2019-05-25T19:57:37.977Z,99.90
2019-05-25T20:00:07.866Z,99.90
2019-05-25T20:02:36.558Z,99.90
2019-05-25T20:05:16.484Z,99.90
2019-05-25T20:07:39.040Z,99.90
2019-05-25T20:10:08.628Z,99.90
2019-05-25T20:12:37.168Z,99.90
2019-05-25T20:15:10.129Z,99.90
2019-05-25T20:17:38.665Z,99.90
2019-05-25T20:20:07.665Z,99.90
2019-05-25T20:22:36.352Z,99.90
2019-05-25T20:25:08.396Z,99.90
2019-05-25T20:27:36.932Z,99.90
2019-05-25T20:30:07.695Z,99.90
2019-05-25T20:32:36.244Z,99.90
2019-05-25T20:35:06.847Z,99.90
2019-05-25T20:37:35.397Z,99.90
2019-05-25T20:40:08.285Z,99.90
2019-05-25T20:42:37.058Z,99.90
2019-05-25T20:45:08.910Z,99.90
2019-05-25T20:47:37.538Z,99.90
2019-05-25T20:50:07.832Z,99.90
2019-05-25T20:52:36.381Z,99.90
2019-05-25T20:55:08.496Z,99.90
2019-05-25T20:57:37.677Z,99.90
2019-05-25T21:00:07.128Z,99.90
2019-05-25T21:02:35.755Z,99.90
2019-05-25T21:05:06.245Z,99.90
2019-05-25T21:07:34.786Z,99.90
2019-05-25T21:10:05.388Z,99.90
2019-05-25T21:12:33.987Z,99.90
2019-05-25T21:15:02.549Z,99.90
2019-05-25T21:17:31.083Z,99.90
2019-05-25T21:19:59.644Z,99.90
2019-05-25T21:22:28.267Z,99.90
2019-05-25T21:24:56.900Z,99.90
2019-05-25T21:27:25.447Z,99.90
2019-05-25T21:29:54.155Z,99.90
2019-05-25T21:32:23.098Z,99.90
2019-05-25T21:34:51.783Z,99.90
2019-05-25T21:37:20.404Z,99.90
2019-05-25T21:39:49.022Z,99.90
2019-05-25T21:42:17.566Z,99.90
2019-05-25T21:44:46.212Z,99.90
2019-05-25T21:47:14.739Z,99.90
2019-05-25T21:49:43.302Z,99.90
2019-05-25T21:52:11.915Z,99.90
2019-05-25T21:54:40.471Z,99.90
2019-05-25T21:57:09.523Z,99.90
2019-05-25T21:59:38.137Z,99.90
2019-05-25T22:02:07.062Z,99.90
2019-05-25T22:04:35.653Z,99.90
2019-05-25T22:07:04.322Z,99.90
2019-05-25T22:09:32.885Z,99.90
2019-05-25T22:12:01.477Z,99.90
2019-05-25T22:14:30.108Z,99.90
2019-05-25T22:16:59.690Z,99.90
2019-05-25T22:19:28.303Z,99.90
2019-05-25T22:21:56.846Z,99.90
2019-05-25T22:24:25.469Z,99.90
2019-05-25T22:26:54.015Z,99.90
2019-05-25T22:29:22.587Z,99.90
2019-05-25T22:31:51.119Z,99.90
2019-05-25T22:34:19.658Z,99.90
2019-05-25T22:36:48.219Z,99.90
2019-05-25T22:39:16.837Z,99.90
2019-05-25T22:41:45.391Z,99.90
2019-05-25T22:44:13.932Z,99.90
2019-05-25T22:46:42.487Z,99.90
2019-05-25T22:49:11.053Z,99.90
2019-05-25T22:51:39.585Z,99.90
2019-05-25T22:54:08.203Z,99.90
2019-05-25T22:56:36.826Z,99.90
2019-05-25T22:59:05.287Z,99.90
2019-05-25T23:01:33.924Z,99.90
2019-05-25T23:04:02.452Z,99.90
2019-05-25T23:06:31.052Z,99.90
2019-05-25T23:08:59.623Z,99.90
2019-05-25T23:11:28.151Z,99.90
2019-05-25T23:13:56.703Z,99.90
2019-05-25T23:16:25.245Z,99.90
2019-05-25T23:18:53.798Z,99.90
2019-05-25T23:21:22.505Z,99.90
2019-05-25T23:23:51.085Z,99.90
2019-05-25T23:26:19.676Z,99.90
2019-05-25T23:28:48.296Z,99.90
2019-05-25T23:31:16.939Z,99.90
2019-05-25T23:33:45.466Z,99.90
2019-05-25T23:36:14.179Z,99.90
2019-05-25T23:38:42.694Z,99.90
2019-05-25T23:41:11.260Z,99.90
2019-05-25T23:43:39.795Z,99.90
2019-05-25T23:46:08.422Z,99.90
2019-05-25T23:48:36.964Z,99.90
2019-05-25T23:51:05.594Z,99.90
2019-05-25T23:53:34.129Z,99.90
2019-05-25T23:56:02.672Z,99.90
2019-05-25T23:58:31.226Z,99.90
